Time;durP1;ratioP1;P1;durP2;ratioP2;P2;SDS_P1;SDS_P2;PMS_P1;PMS_P2;Temp;Humidity;BMP_temperature;BMP_pressure;BME280_temperature;BME280_humidity;BME280_pressure;Samples;Min_cycle;Max_cycle;Signal;HPM_P1;HPM_P2
2022/03/09 00:01:55;;;;;;;15.47;9.80;;;0.10;99.90;;;;;;5024332;28;20477;-70
2022/03/09 00:04:23;;;;;;;16.83;9.73;;;0.10;99.90;;;;;;5032436;28;20510;-70
2022/03/09 00:06:50;;;;;;;16.60;9.27;;;0.10;99.90;;;;;;5032594;28;20838;-70
2022/03/09 00:09:16;;;;;;;17.03;9.10;;;0.00;99.90;;;;;;5032850;28;20457;-70
2022/03/09 00:11:43;;;;;;;20.33;9.10;;;0.00;99.90;;;;;;5032235;28;20450;-70
2022/03/09 00:14:10;;;;;;;20.60;9.20;;;0.00;99.90;;;;;;5032120;28;20449;-69
2022/03/09 00:16:37;;;;;;;18.80;8.27;;;-0.10;99.90;;;;;;5032630;28;20519;-70
2022/03/09 00:19:04;;;;;;;14.03;8.63;;;0.20;99.90;;;;;;5032533;28;20465;-70
2022/03/09 00:21:32;;;;;;;13.50;8.50;;;-0.20;99.90;;;;;;5032528;28;20492;-70
2022/03/09 00:23:58;;;;;;;13.90;7.80;;;-0.20;99.90;;;;;;5032077;28;20507;-70
2022/03/09 00:26:25;;;;;;;14.53;7.27;;;0.10;99.90;;;;;;5032483;28;20527;-70
2022/03/09 00:28:52;;;;;;;17.50;7.90;;;0.10;99.90;;;;;;5032232;28;20457;-70
2022/03/09 00:31:18;;;;;;;10.50;6.90;;;-0.10;99.90;;;;;;5032838;28;20614;-70
2022/03/09 00:33:45;;;;;;;14.63;7.67;;;-0.30;99.90;;;;;;5032883;28;20461;-70
2022/03/09 00:36:12;;;;;;;16.17;7.50;;;-0.20;99.90;;;;;;5032153;28;20520;-70
2022/03/09 00:38:40;;;;;;;11.50;7.40;;;-0.30;99.90;;;;;;5032531;28;20456;-70
2022/03/09 00:41:06;;;;;;;12.93;8.43;;;-0.30;99.90;;;;;;5032027;28;20503;-70
2022/03/09 00:43:33;;;;;;;12.27;7.83;;;-0.30;99.90;;;;;;5032022;28;20454;-70
2022/03/09 00:46:00;;;;;;;16.37;9.00;;;-0.40;99.90;;;;;;5032678;28;20477;-70
2022/03/09 00:48:26;;;;;;;15.07;8.57;;;-0.40;99.90;;;;;;5032425;28;20507;-70
2022/03/09 00:50:53;;;;;;;21.60;9.47;;;-0.40;99.90;;;;;;5032301;28;20564;-69
2022/03/09 00:53:20;;;;;;;15.87;8.73;;;-0.10;99.90;;;;;;5032208;28;20446;-70
2022/03/09 00:55:48;;;;;;;17.27;9.23;;;-0.50;99.90;;;;;;5031976;28;20515;-69
2022/03/09 00:58:14;;;;;;;13.43;9.13;;;-0.50;99.90;;;;;;5032288;28;20462;-69
2022/03/09 01:00:41;;;;;;;17.27;9.10;;;-0.50;99.90;;;;;;5032432;28;20452;-70
2022/03/09 01:03:08;;;;;;;16.87;9.03;;;-0.60;99.90;;;;;;5031997;28;20485;-70
2022/03/09 01:05:34;;;;;;;16.70;8.80;;;-0.30;99.90;;;;;;5032084;28;20512;-70
2022/03/09 01:08:01;;;;;;;19.13;8.47;;;-0.70;99.90;;;;;;5031502;28;20453;-70
2022/03/09 01:10:28;;;;;;;19.17;9.57;;;-0.50;99.90;;;;;;5032237;28;20466;-69
2022/03/09 01:12:56;;;;;;;18.97;9.73;;;-0.50;99.90;;;;;;5031921;28;20457;-70
2022/03/09 01:15:23;;;;;;;15.77;8.60;;;-0.60;99.90;;;;;;5031942;28;20449;-70
2022/03/09 01:17:49;;;;;;;17.10;9.13;;;-0.70;99.90;;;;;;5031803;28;20457;-70
2022/03/09 01:20:16;;;;;;;24.30;9.50;;;-0.80;99.90;;;;;;5031808;28;20515;-70
2022/03/09 01:22:43;;;;;;;15.33;9.47;;;-0.80;99.90;;;;;;5031191;28;20484;-70
2022/03/09 01:25:10;;;;;;;21.00;9.00;;;-0.30;99.90;;;;;;5031787;28;20515;-70
2022/03/09 01:27:37;;;;;;;17.93;9.50;;;-0.60;99.90;;;;;;5031597;28;20481;-70
2022/03/09 01:30:07;;;;;;;14.50;8.90;;;-0.90;99.90;;;;;;5031703;28;20450;-70
2022/03/09 01:32:34;;;;;;;14.63;9.33;;;-0.90;99.90;;;;;;5031186;28;20453;-70
2022/03/09 01:35:01;;;;;;;16.17;9.03;;;-1.00;99.90;;;;;;5030884;28;20449;-70
2022/03/09 01:37:28;;;;;;;15.40;9.30;;;-0.70;99.90;;;;;;5030742;28;20488;-70
2022/03/09 01:39:54;;;;;;;16.17;9.00;;;-1.00;99.90;;;;;;5031382;28;20511;-70
2022/03/09 01:42:21;;;;;;;12.43;8.70;;;-0.90;99.90;;;;;;5031141;28;20968;-70
2022/03/09 01:44:48;;;;;;;17.70;9.17;;;-1.00;99.90;;;;;;5031094;28;20468;-70
2022/03/09 01:47:16;;;;;;;14.87;8.87;;;-1.10;99.90;;;;;;5030946;28;20519;-70
2022/03/09 01:49:43;;;;;;;14.17;8.53;;;-0.90;99.90;;;;;;5031027;28;20584;-70
2022/03/09 01:52:12;;;;;;;17.03;8.40;;;-1.20;99.90;;;;;;5031291;28;20449;-70
2022/03/09 01:54:40;;;;;;;13.97;8.40;;;-1.20;99.90;;;;;;5030583;28;20519;-70
2022/03/09 01:57:07;;;;;;;17.07;7.90;;;-1.20;99.90;;;;;;5030734;28;20470;-70
2022/03/09 01:59:34;;;;;;;14.57;7.93;;;-1.10;99.90;;;;;;5030791;28;20456;-70
2022/03/09 02:02:01;;;;;;;14.23;7.97;;;-1.10;99.90;;;;;;5030685;28;20489;-70
2022/03/09 02:04:29;;;;;;;17.37;7.63;;;-1.10;99.90;;;;;;5030666;28;20490;-70
2022/03/09 02:06:56;;;;;;;12.67;7.13;;;-1.20;99.90;;;;;;5030828;28;20515;-70
2022/03/09 02:12:08;;;;;;;12.83;7.33;;;-0.90;99.90;;;;;;5030510;28;20456;-70
2022/03/09 02:14:38;;;;;;;10.20;6.53;;;-1.20;99.90;;;;;;5030823;28;20453;-70
2022/03/09 02:17:10;;;;;;;15.40;7.53;;;-1.20;99.90;;;;;;5030477;28;20470;-70
2022/03/09 02:19:39;;;;;;;9.57;6.53;;;-1.10;99.90;;;;;;5030599;28;20449;-70
2022/03/09 02:22:10;;;;;;;11.63;7.13;;;-1.20;99.90;;;;;;5030574;28;21000;-70
2022/03/09 02:24:39;;;;;;;23.23;8.20;;;-1.20;99.90;;;;;;5029984;28;20503;-70
2022/03/09 02:27:06;;;;;;;12.70;7.43;;;-0.90;99.90;;;;;;5030539;28;20469;-70
2022/03/09 02:29:33;;;;;;;17.53;7.40;;;-1.20;99.90;;;;;;5030576;28;20458;-70
2022/03/09 02:32:00;;;;;;;14.20;8.33;;;-0.90;99.90;;;;;;5030689;28;20445;-70
2022/03/09 02:34:27;;;;;;;13.43;8.60;;;-1.30;99.90;;;;;;5030135;28;20894;-70
2022/03/09 02:36:54;;;;;;;15.40;9.30;;;-1.30;99.90;;;;;;5030504;28;21010;-70
2022/03/09 02:39:21;;;;;;;13.67;9.50;;;-1.30;99.90;;;;;;5030011;28;20480;-70
2022/03/09 02:41:49;;;;;;;18.53;9.10;;;-1.30;99.90;;;;;;5030698;28;20508;-70
2022/03/09 02:44:16;;;;;;;18.17;9.40;;;-1.40;99.90;;;;;;5030274;28;20615;-70
2022/03/09 02:46:42;;;;;;;14.73;8.80;;;-1.40;99.90;;;;;;5030569;28;20989;-71
2022/03/09 02:49:09;;;;;;;13.73;9.27;;;-1.40;99.90;;;;;;5029348;28;20449;-70
2022/03/09 02:51:36;;;;;;;19.40;10.23;;;-1.40;99.90;;;;;;5030486;28;20456;-70
2022/03/09 02:54:03;;;;;;;20.00;9.50;;;-1.40;99.90;;;;;;5029154;28;20950;-70
2022/03/09 02:56:29;;;;;;;16.97;8.57;;;-1.50;99.90;;;;;;5029380;28;20477;-70
2022/03/09 02:58:58;;;;;;;15.53;8.43;;;-1.20;99.90;;;;;;5030406;28;20457;-70
2022/03/09 03:01:24;;;;;;;14.30;8.90;;;-1.40;99.90;;;;;;5030176;28;20454;-70
2022/03/09 03:03:51;;;;;;;14.67;7.97;;;-1.50;99.90;;;;;;5029672;28;20985;-70
2022/03/09 03:06:18;;;;;;;14.87;8.80;;;-1.20;99.90;;;;;;5030059;28;20473;-70
2022/03/09 03:08:44;;;;;;;15.00;8.97;;;-1.40;99.90;;;;;;5030070;28;20450;-70
2022/03/09 03:11:12;;;;;;;15.00;7.87;;;-1.60;99.90;;;;;;5029944;28;20453;-70
2022/03/09 03:13:39;;;;;;;17.10;8.23;;;-1.50;99.90;;;;;;5029729;28;20449;-70
2022/03/09 03:16:08;;;;;;;16.97;9.30;;;-1.60;99.90;;;;;;5030011;28;21020;-70
2022/03/09 03:18:35;;;;;;;20.57;9.20;;;-1.60;99.90;;;;;;5029996;28;20460;-70
2022/03/09 03:21:02;;;;;;;16.70;9.03;;;-1.70;99.90;;;;;;5030131;28;20449;-70
2022/03/09 03:23:31;;;;;;;15.43;8.67;;;-1.70;99.90;;;;;;5029207;28;21070;-70
2022/03/09 03:25:58;;;;;;;18.80;8.97;;;-1.40;99.90;;;;;;5029742;28;20469;-70
2022/03/09 03:28:25;;;;;;;16.70;9.37;;;-1.40;99.90;;;;;;5030020;28;20461;-71
2022/03/09 03:30:52;;;;;;;17.20;10.00;;;-1.70;99.90;;;;;;5030145;28;20453;-70
2022/03/09 03:33:21;;;;;;;12.23;8.27;;;-1.70;99.90;;;;;;5029885;28;20453;-71
2022/03/09 03:35:49;;;;;;;18.10;8.60;;;-1.80;99.90;;;;;;5029618;28;21023;-70
2022/03/09 03:38:16;;;;;;;18.07;8.67;;;-1.80;99.90;;;;;;5029906;28;20480;-71
2022/03/09 03:40:43;;;;;;;14.87;8.27;;;-1.80;99.90;;;;;;5030021;28;20536;-71
2022/03/09 03:43:10;;;;;;;14.20;8.77;;;-1.80;99.90;;;;;;5010570;28;20478;-71
2022/03/09 03:45:37;;;;;;;15.93;9.20;;;-1.80;99.90;;;;;;5029452;28;20445;-70
2022/03/09 03:48:04;;;;;;;14.80;8.60;;;-1.80;99.90;;;;;;5029653;28;20491;-71
2022/03/09 03:50:32;;;;;;;13.93;8.13;;;-1.90;99.90;;;;;;5030097;28;21043;-70
2022/03/09 03:52:59;;;;;;;16.97;7.93;;;-1.90;99.90;;;;;;5029442;28;20465;-71
2022/03/09 03:55:27;;;;;;;11.57;6.93;;;-1.70;99.90;;;;;;5029192;28;20480;-71
2022/03/09 03:57:53;;;;;;;11.70;7.27;;;-1.60;99.90;;;;;;5029363;28;20461;-70
2022/03/09 04:00:20;;;;;;;14.60;7.70;;;-1.10;99.90;;;;;;5031788;28;20456;-70
2022/03/09 04:02:47;;;;;;;13.00;8.20;;;-1.90;99.90;;;;;;5033626;28;20477;-71
2022/03/09 04:05:14;;;;;;;12.53;7.57;;;-2.00;99.90;;;;;;5032987;28;20454;-70
2022/03/09 04:07:42;;;;;;;10.07;6.57;;;-1.90;99.90;;;;;;5033395;28;20477;-70
2022/03/09 04:10:08;;;;;;;17.80;8.10;;;-1.90;99.90;;;;;;5032525;28;20456;-71
2022/03/09 04:12:35;;;;;;;16.40;7.20;;;-1.90;99.90;;;;;;5033182;28;20522;-71
2022/03/09 04:15:02;;;;;;;13.67;7.60;;;-1.90;99.90;;;;;;5032374;28;20449;-70
2022/03/09 04:17:29;;;;;;;16.80;8.67;;;-2.00;99.90;;;;;;5033153;28;20477;-70
2022/03/09 04:19:55;;;;;;;15.67;8.83;;;-2.00;99.90;;;;;;5032783;28;20800;-71
2022/03/09 04:22:22;;;;;;;14.53;8.40;;;-2.00;99.90;;;;;;5033151;28;20468;-70
2022/03/09 04:24:51;;;;;;;14.53;8.23;;;-1.70;99.90;;;;;;5032298;28;20508;-70
2022/03/09 04:27:17;;;;;;;14.63;8.40;;;-2.00;99.90;;;;;;5029949;28;20891;-71
2022/03/09 04:29:44;;;;;;;16.03;8.80;;;-1.40;99.90;;;;;;5032736;28;20453;-71
2022/03/09 04:32:11;;;;;;;15.50;8.83;;;-1.80;99.90;;;;;;5033136;28;20500;-70
2022/03/09 04:34:38;;;;;;;16.00;8.67;;;-2.10;99.90;;;;;;5032600;28;20457;-70
2022/03/09 04:37:05;;;;;;;18.33;10.53;;;-1.50;99.90;;;;;;5032680;28;20956;-71
2022/03/09 04:39:32;;;;;;;19.70;9.10;;;-2.10;99.90;;;;;;5032326;28;20544;-70
2022/03/09 04:42:00;;;;;;;17.23;9.57;;;-2.00;99.90;;;;;;5032353;28;20453;-70
2022/03/09 04:44:27;;;;;;;17.90;9.90;;;-2.00;99.90;;;;;;5032174;28;20543;-71
2022/03/09 04:46:54;;;;;;;16.87;10.00;;;-2.00;99.90;;;;;;5032429;28;20480;-71
2022/03/09 04:49:20;;;;;;;22.40;10.10;;;-1.80;99.90;;;;;;5031990;28;20490;-70
2022/03/09 04:51:47;;;;;;;17.00;10.17;;;-2.10;99.90;;;;;;5032279;28;20457;-71
2022/03/09 04:54:14;;;;;;;20.23;9.90;;;-2.10;99.90;;;;;;5031755;28;20484;-71
2022/03/09 04:56:40;;;;;;;21.90;10.97;;;-2.10;99.90;;;;;;5032423;28;20504;-71
2022/03/09 04:59:08;;;;;;;17.93;9.87;;;-2.20;99.90;;;;;;5032093;28;20484;-71
2022/03/09 05:01:35;;;;;;;15.00;9.70;;;-1.80;99.90;;;;;;5032054;28;20938;-71
2022/03/09 05:04:02;;;;;;;22.93;9.73;;;-2.20;99.90;;;;;;5032099;28;20870;-73
2022/03/09 05:06:28;;;;;;;19.00;10.17;;;-1.50;99.90;;;;;;5031836;28;20481;-72
2022/03/09 05:08:55;;;;;;;18.50;10.20;;;-2.20;99.90;;;;;;5032248;28;20454;-70
2022/03/09 05:11:22;;;;;;;21.60;10.73;;;-2.20;99.90;;;;;;5031097;28;20817;-70
2022/03/09 05:13:49;;;;;;;26.27;11.13;;;-2.20;99.90;;;;;;5031506;28;20445;-71
2022/03/09 05:16:17;;;;;;;17.90;10.30;;;-2.20;99.90;;;;;;5031371;28;20461;-71
2022/03/09 05:18:44;;;;;;;20.93;10.97;;;-2.20;99.90;;;;;;5031562;28;20511;-71
2022/03/09 05:21:10;;;;;;;19.10;10.00;;;-2.20;99.90;;;;;;5031401;28;20441;-70
2022/03/09 05:23:37;;;;;;;19.97;9.10;;;-2.30;99.90;;;;;;5031446;28;20997;-70
2022/03/09 05:26:04;;;;;;;17.60;10.20;;;-2.00;99.90;;;;;;5031248;28;20997;-71
2022/03/09 05:28:31;;;;;;;16.10;9.00;;;-2.10;99.90;;;;;;5031479;28;20449;-72
2022/03/09 05:30:57;;;;;;;17.57;9.90;;;-2.30;99.90;;;;;;5031130;28;20453;-70
2022/03/09 05:33:26;;;;;;;16.60;9.23;;;-2.30;99.90;;;;;;5031322;28;20445;-71
2022/03/09 05:35:52;;;;;;;20.13;10.10;;;-2.30;99.90;;;;;;5030981;28;20473;-71
2022/03/09 05:38:19;;;;;;;19.33;9.70;;;-2.30;99.90;;;;;;5031722;28;20503;-71
2022/03/09 05:40:46;;;;;;;24.50;10.73;;;-1.70;99.90;;;;;;5030831;28;20937;-70
2022/03/09 05:43:12;;;;;;;28.70;11.97;;;-2.40;99.90;;;;;;5031174;28;20485;-70
2022/03/09 05:45:39;;;;;;;22.77;11.53;;;-2.30;99.90;;;;;;5030556;28;20470;-70
2022/03/09 05:48:06;;;;;;;18.67;10.40;;;-2.30;99.90;;;;;;5031418;28;20441;-69
2022/03/09 05:50:34;;;;;;;25.53;13.00;;;-2.20;99.90;;;;;;5031032;28;20455;-69
2022/03/09 05:53:00;;;;;;;26.70;11.30;;;-2.30;99.90;;;;;;5031068;28;20450;-69
2022/03/09 05:55:27;;;;;;;26.30;12.40;;;-1.40;99.90;;;;;;5030463;28;20461;-69
2022/03/09 05:57:54;;;;;;;19.60;10.87;;;-1.60;99.90;;;;;;5030313;28;20518;-70
2022/03/09 06:00:20;;;;;;;23.93;10.77;;;-1.60;99.90;;;;;;5030745;28;20453;-70
2022/03/09 06:02:47;;;;;;;25.03;11.50;;;-2.00;99.90;;;;;;5030416;28;20971;-69
2022/03/09 06:05:14;;;;;;;18.63;10.57;;;-0.90;99.90;;;;;;5030952;28;20480;-69
2022/03/09 06:07:42;;;;;;;20.40;10.77;;;-2.20;99.90;;;;;;5027727;28;20480;-69
2022/03/09 06:10:10;;;;;;;23.17;10.97;;;-2.20;99.90;;;;;;5030529;28;21011;-69
2022/03/09 06:12:36;;;;;;;27.23;10.67;;;-2.10;99.90;;;;;;5030935;28;20531;-69
2022/03/09 06:15:05;;;;;;;26.53;10.50;;;-1.70;99.90;;;;;;5030416;28;20445;-70
2022/03/09 06:17:32;;;;;;;22.83;10.83;;;-2.00;99.90;;;;;;5029842;28;20531;-70
2022/03/09 06:19:58;;;;;;;29.43;11.00;;;-1.90;99.90;;;;;;5030860;28;20461;-70
2022/03/09 06:22:25;;;;;;;17.87;10.47;;;-1.80;99.90;;;;;;5030505;28;20906;-70
2022/03/09 06:24:53;;;;;;;30.23;11.40;;;-1.40;99.90;;;;;;5030547;28;20485;-70
2022/03/09 06:27:20;;;;;;;20.43;10.53;;;-1.60;99.90;;;;;;5030735;28;20576;-70
2022/03/09 06:29:47;;;;;;;22.73;10.80;;;-1.20;99.90;;;;;;5030334;28;20453;-70
2022/03/09 06:32:13;;;;;;;19.20;11.07;;;-0.90;99.90;;;;;;5029962;28;20465;-70
2022/03/09 06:34:40;;;;;;;19.63;10.57;;;-0.50;99.90;;;;;;5030709;28;20461;-69
2022/03/09 06:37:07;;;;;;;21.07;11.47;;;0.10;99.90;;;;;;5030792;28;20465;-70
2022/03/09 06:39:34;;;;;;;20.50;10.60;;;0.70;99.90;;;;;;5030333;28;20949;-70
2022/03/09 06:42:02;;;;;;;19.87;10.83;;;1.30;99.90;;;;;;5030662;28;20449;-69
2022/03/09 06:44:29;;;;;;;22.37;11.60;;;2.00;99.90;;;;;;5029892;28;20481;-69
2022/03/09 06:46:57;;;;;;;29.43;11.40;;;2.70;99.90;;;;;;5029898;28;20504;-69
2022/03/09 06:49:23;;;;;;;24.63;11.63;;;3.30;99.90;;;;;;5029912;28;20454;-69
2022/03/09 06:51:50;;;;;;;19.20;10.83;;;3.60;99.90;;;;;;5030360;28;20972;-69
2022/03/09 06:54:17;;;;;;;18.40;11.57;;;4.10;99.90;;;;;;5029352;28;20480;-69
2022/03/09 06:56:43;;;;;;;22.57;13.03;;;4.50;99.90;;;;;;5030467;28;20473;-69
2022/03/09 06:59:11;;;;;;;20.13;10.77;;;4.90;99.90;;;;;;5029265;28;20465;-69
2022/03/09 07:01:38;;;;;;;19.53;11.90;;;5.40;99.90;;;;;;5030317;28;20454;-71
2022/03/09 07:04:05;;;;;;;23.77;11.03;;;5.80;99.90;;;;;;5029509;28;20535;-71
2022/03/09 07:06:31;;;;;;;23.40;11.30;;;6.10;99.90;;;;;;5029920;28;20481;-71
2022/03/09 07:08:58;;;;;;;20.90;11.87;;;6.40;99.90;;;;;;5030219;28;20461;-72
2022/03/09 07:11:25;;;;;;;20.40;10.90;;;6.80;99.90;;;;;;5029858;28;21005;-71
2022/03/09 07:13:51;;;;;;;22.40;11.63;;;7.20;99.90;;;;;;5029846;28;20449;-72
2022/03/09 07:16:19;;;;;;;19.97;11.27;;;7.50;99.90;;;;;;5029798;28;20535;-71
2022/03/09 07:18:46;;;;;;;21.83;11.63;;;7.70;99.90;;;;;;5029236;28;20457;-72
2022/03/09 07:21:13;;;;;;;19.60;10.63;;;7.80;99.90;;;;;;5029580;28;20571;-72
2022/03/09 07:23:40;;;;;;;21.93;11.03;;;7.90;99.90;;;;;;5030148;28;20565;-72
2022/03/09 07:26:07;;;;;;;19.90;11.07;;;7.90;99.90;;;;;;5029803;28;20473;-72
2022/03/09 07:28:34;;;;;;;17.50;11.53;;;8.10;99.90;;;;;;5030288;28;20491;-72
2022/03/09 07:31:01;;;;;;;14.73;10.40;;;8.70;99.90;;;;;;5029546;28;20953;-72
2022/03/09 07:33:29;;;;;;;20.90;12.17;;;9.20;99.90;;;;;;5029684;28;20450;-72
2022/03/09 07:35:56;;;;;;;28.10;11.63;;;9.40;99.90;;;;;;5033092;28;20477;-72
2022/03/09 07:38:23;;;;;;;20.03;12.27;;;9.40;99.90;;;;;;5033663;28;20457;-72
2022/03/09 07:40:49;;;;;;;31.07;15.23;;;9.40;99.90;;;;;;5033260;28;20461;-71
2022/03/09 07:43:16;;;;;;;28.63;15.30;;;9.50;99.90;;;;;;5032730;28;20515;-72
2022/03/09 07:45:43;;;;;;;26.70;15.27;;;9.60;99.90;;;;;;5033096;28;20484;-72
2022/03/09 07:48:10;;;;;;;20.40;11.63;;;9.80;99.90;;;;;;5022965;28;20454;-72
2022/03/09 07:50:38;;;;;;;22.00;12.20;;;9.80;99.60;;;;;;5018395;28;20832;-72
2022/03/09 07:53:06;;;;;;;24.20;12.20;;;9.90;99.40;;;;;;5022708;28;20456;-72
2022/03/09 07:55:33;;;;;;;21.37;11.47;;;10.00;98.80;;;;;;5030515;28;20453;-72
2022/03/09 07:58:00;;;;;;;20.37;11.50;;;10.20;99.20;;;;;;5030396;28;20462;-73
2022/03/09 08:00:28;;;;;;;19.80;12.17;;;10.00;98.60;;;;;;5030948;28;20453;-74
2022/03/09 08:02:54;;;;;;;21.23;12.00;;;9.90;99.20;;;;;;5032147;28;20817;-73
2022/03/09 08:05:21;;;;;;;25.50;11.73;;;10.00;98.20;;;;;;5031386;28;20488;-73
2022/03/09 08:07:49;;;;;;;23.50;11.83;;;10.00;97.30;;;;;;5031205;28;20535;-73
2022/03/09 08:10:16;;;;;;;25.57;11.17;;;9.80;97.60;;;;;;5031829;28;20453;-73
2022/03/09 08:12:43;;;;;;;20.50;11.40;;;9.70;97.30;;;;;;5032605;28;20483;-73
2022/03/09 08:15:11;;;;;;;14.47;10.57;;;9.80;97.50;;;;;;5032285;28;20847;-73
2022/03/09 08:17:37;;;;;;;15.57;9.53;;;9.90;97.10;;;;;;5032575;28;20529;-71
2022/03/09 08:20:05;;;;;;;14.20;9.67;;;9.80;96.30;;;;;;5031529;28;20469;-71
2022/03/09 08:22:32;;;;;;;19.13;10.60;;;9.70;95.90;;;;;;5031946;28;20540;-70
2022/03/09 08:25:00;;;;;;;19.77;12.67;;;9.70;96.00;;;;;;5032222;28;20481;-70
2022/03/09 08:27:27;;;;;;;19.50;11.67;;;9.70;96.20;;;;;;5031197;28;20477;-70
2022/03/09 08:29:54;;;;;;;15.60;10.23;;;9.70;96.20;;;;;;5032851;28;20453;-71
2022/03/09 08:32:21;;;;;;;17.13;10.00;;;9.60;95.60;;;;;;5032284;28;20457;-71
2022/03/09 08:34:48;;;;;;;22.23;10.10;;;9.50;95.80;;;;;;5032326;28;20456;-70
2022/03/09 08:37:15;;;;;;;15.83;9.80;;;9.10;95.30;;;;;;5031090;28;20473;-70
2022/03/09 08:39:43;;;;;;;15.07;9.90;;;9.10;96.30;;;;;;5031949;28;20923;-70
2022/03/09 08:42:11;;;;;;;17.40;9.83;;;8.80;95.90;;;;;;5032579;28;20465;-70
2022/03/09 08:44:38;;;;;;;16.80;10.60;;;8.70;96.90;;;;;;5031488;28;20473;-70
2022/03/09 08:47:06;;;;;;;16.87;11.17;;;8.90;97.60;;;;;;5026704;28;20549;-70
2022/03/09 08:49:35;;;;;;;41.97;24.10;;;9.20;96.80;;;;;;5031276;28;20886;-70
2022/03/09 08:52:02;;;;;;;24.90;14.90;;;9.50;96.70;;;;;;5028693;28;20449;-70
2022/03/09 08:54:29;;;;;;;20.77;12.10;;;9.70;95.80;;;;;;5030855;28;20503;-70
2022/03/09 08:56:56;;;;;;;16.90;10.67;;;9.80;95.10;;;;;;5030754;28;20488;-70
2022/03/09 08:59:24;;;;;;;18.03;11.03;;;9.40;95.20;;;;;;5031849;28;20457;-70
2022/03/09 09:01:51;;;;;;;14.60;10.37;;;9.10;96.20;;;;;;5030189;28;20540;-72
2022/03/09 09:04:18;;;;;;;18.27;10.83;;;9.10;96.60;;;;;;5030326;28;20483;-72
2022/03/09 09:06:44;;;;;;;18.27;11.17;;;9.30;96.00;;;;;;5030281;28;20469;-72
2022/03/09 09:09:14;;;;;;;16.43;9.90;;;9.50;96.20;;;;;;5032051;28;20840;-72
2022/03/09 09:11:41;;;;;;;17.57;9.47;;;9.60;95.60;;;;;;5031783;28;20504;-72
2022/03/09 09:14:08;;;;;;;14.90;9.57;;;9.50;95.70;;;;;;5029965;28;20464;-73
2022/03/09 09:16:36;;;;;;;15.93;9.90;;;9.30;95.80;;;;;;5028102;28;20469;-72
2022/03/09 09:19:03;;;;;;;17.13;9.97;;;9.10;96.10;;;;;;5030751;28;20449;-73
2022/03/09 09:21:29;;;;;;;14.57;9.60;;;8.90;96.40;;;;;;5031709;28;20449;-72
2022/03/09 09:23:56;;;;;;;16.17;9.90;;;8.70;96.60;;;;;;5030419;28;20458;-72
2022/03/09 09:26:23;;;;;;;17.60;9.47;;;8.70;96.70;;;;;;5029363;28;20473;-72
2022/03/09 09:28:50;;;;;;;15.47;10.10;;;8.90;96.70;;;;;;5031010;28;20458;-72
2022/03/09 09:31:16;;;;;;;16.80;9.60;;;9.20;96.90;;;;;;5031309;28;20457;-72
2022/03/09 09:33:44;;;;;;;16.50;9.30;;;9.40;97.40;;;;;;5030008;28;20453;-73
2022/03/09 09:36:11;;;;;;;17.23;10.20;;;9.80;97.30;;;;;;5030110;28;20469;-72
2022/03/09 09:38:38;;;;;;;19.07;10.87;;;10.00;96.10;;;;;;5030537;28;20464;-72
2022/03/09 09:41:08;;;;;;;17.37;10.87;;;9.50;96.00;;;;;;5030865;28;20464;-72
2022/03/09 09:43:35;;;;;;;18.02;9.75;;;9.10;96.60;;;;;;5029097;28;20477;-72
2022/03/09 09:46:02;;;;;;;18.97;10.13;;;9.10;97.00;;;;;;5028335;28;21158;-72
2022/03/09 09:48:28;;;;;;;15.60;9.90;;;9.20;96.20;;;;;;5030204;28;20457;-72
2022/03/09 09:50:57;;;;;;;15.97;9.80;;;9.20;95.60;;;;;;5030889;28;20495;-71
2022/03/09 09:53:25;;;;;;;17.33;10.00;;;9.20;95.90;;;;;;5030813;28;20860;-71
2022/03/09 09:55:52;;;;;;;14.57;9.30;;;9.40;96.30;;;;;;5031016;28;20473;-70
2022/03/09 09:58:20;;;;;;;18.20;8.90;;;9.60;94.20;;;;;;5028070;28;20457;-72
2022/03/09 10:00:47;;;;;;;14.30;9.60;;;9.50;95.00;;;;;;5029999;28;20747;-72
2022/03/09 10:03:13;;;;;;;12.60;9.07;;;9.70;94.30;;;;;;5030689;28;20448;-72
2022/03/09 10:05:40;;;;;;;14.50;9.03;;;9.90;94.50;;;;;;5029973;28;20493;-72
2022/03/09 10:08:17;;;;;;;16.10;9.80;;;9.90;93.70;;;;;;5029646;28;20453;-72
2022/03/09 10:10:46;;;;;;;15.03;9.40;;;10.00;93.50;;;;;;5020700;28;20460;-72
2022/03/09 10:13:15;;;;;;;19.63;9.93;;;9.80;93.10;;;;;;5029889;28;20465;-72
2022/03/09 10:15:43;;;;;;;13.43;8.97;;;9.60;94.10;;;;;;5030250;28;20577;-72
2022/03/09 10:18:18;;;;;;;15.80;9.23;;;9.60;94.30;;;;;;5027843;28;20457;-73
2022/03/09 10:20:46;;;;;;;13.17;9.27;;;9.60;94.20;;;;;;5028642;28;20551;-72
2022/03/09 10:23:15;;;;;;;16.90;9.07;;;9.90;94.50;;;;;;5029522;28;20445;-72
2022/03/09 10:25:42;;;;;;;17.30;10.07;;;10.00;93.50;;;;;;5027350;28;20493;-72
2022/03/09 10:28:11;;;;;;;13.80;8.43;;;9.90;93.60;;;;;;5029002;28;20879;-72
2022/03/09 10:30:39;;;;;;;13.93;8.90;;;10.00;92.60;;;;;;5029570;28;20462;-72
2022/03/09 10:33:07;;;;;;;15.67;8.63;;;9.80;94.30;;;;;;5028225;28;21017;-72
2022/03/09 10:35:43;;;;;;;13.87;8.70;;;9.70;94.10;;;;;;5028578;28;20515;-72
2022/03/09 10:38:24;;;;;;;14.00;9.17;;;9.60;93.50;;;;;;5026147;28;20988;-72
2022/03/09 10:40:54;;;;;;;13.57;9.23;;;9.60;93.10;;;;;;5028636;28;20461;-72
2022/03/09 10:43:22;;;;;;;14.83;8.80;;;9.50;93.30;;;;;;5026026;28;20472;-71
2022/03/09 10:45:59;;;;;;;13.10;8.90;;;9.30;93.10;;;;;;5027419;28;21063;-72
2022/03/09 10:48:26;;;;;;;15.30;9.50;;;9.10;93.50;;;;;;5029809;28;20507;-72
2022/03/09 10:50:54;;;;;;;15.73;8.60;;;9.20;94.10;;;;;;5028006;28;20473;-72
2022/03/09 10:53:21;;;;;;;13.63;9.03;;;9.30;93.30;;;;;;5027871;28;20465;-71
2022/03/09 10:55:50;;;;;;;14.57;8.93;;;9.30;93.00;;;;;;5025606;28;20465;-71
2022/03/09 10:58:19;;;;;;;13.97;8.93;;;9.20;93.70;;;;;;5027851;28;21055;-72
2022/03/09 11:00:48;;;;;;;12.57;9.13;;;9.30;93.70;;;;;;5029743;28;20460;-72
2022/03/09 11:03:16;;;;;;;15.90;8.80;;;9.40;93.30;;;;;;5026099;28;20549;-71
2022/03/09 11:05:51;;;;;;;15.33;8.77;;;9.40;92.50;;;;;;5028011;28;20568;-71
2022/03/09 11:08:20;;;;;;;13.97;8.43;;;9.60;93.50;;;;;;5025440;28;21052;-72
2022/03/09 11:10:49;;;;;;;13.37;9.07;;;10.00;92.80;;;;;;5029862;28;20465;-71
2022/03/09 11:13:17;;;;;;;15.80;9.80;;;10.20;92.20;;;;;;5031283;28;20457;-71
2022/03/09 11:15:47;;;;;;;16.47;10.10;;;10.40;91.90;;;;;;5031012;28;21011;-73
2022/03/09 11:18:17;;;;;;;13.63;8.50;;;10.80;92.40;;;;;;5031107;28;20457;-72
2022/03/09 11:20:44;;;;;;;14.17;9.67;;;11.20;91.90;;;;;;5029533;28;20548;-72
2022/03/09 11:23:12;;;;;;;14.03;9.37;;;11.50;92.00;;;;;;5031683;28;20464;-72
2022/03/09 11:25:42;;;;;;;15.90;9.00;;;11.70;91.60;;;;;;5031124;28;21054;-71
2022/03/09 11:28:12;;;;;;;15.33;9.00;;;11.80;91.10;;;;;;5032006;28;20462;-72
2022/03/09 11:30:53;;;;;;;14.37;10.30;;;11.90;90.70;;;;;;5029264;28;20457;-73
2022/03/09 11:33:39;;;;;;;13.40;9.00;;;11.90;90.40;;;;;;5027513;28;20453;-71
2022/03/09 11:36:33;;;;;;;15.10;10.17;;;11.90;91.10;;;;;;5030191;28;20476;-72
2022/03/09 11:39:19;;;;;;;16.00;9.80;;;12.00;91.30;;;;;;5032084;28;20460;-72
2022/03/09 11:41:46;;;;;;;18.33;9.47;;;12.40;90.10;;;;;;5024679;28;20456;-73
2022/03/09 11:44:30;;;;;;;11.77;9.00;;;12.30;90.20;;;;;;5026348;28;20461;-72
2022/03/09 11:47:02;;;;;;;13.70;9.20;;;12.40;89.50;;;;;;5031156;28;20473;-72
2022/03/09 11:49:32;;;;;;;14.07;9.70;;;12.70;91.20;;;;;;5032611;28;20453;-72
2022/03/09 11:52:10;;;;;;;19.80;11.47;;;12.90;89.80;;;;;;5031737;28;20473;-72
2022/03/09 11:54:42;;;;;;;20.70;9.90;;;12.80;86.60;;;;;;5027023;28;20452;-72
2022/03/09 11:57:09;;;;;;;21.93;10.07;;;12.40;87.10;;;;;;5031484;28;20519;-72
2022/03/09 11:59:37;;;;;;;15.63;10.73;;;12.30;87.70;;;;;;5032182;28;20461;-72
2022/03/09 12:02:22;;;;;;;19.17;10.73;;;12.70;88.60;;;;;;5031352;28;20457;-72
2022/03/09 12:04:53;;;;;;;14.20;9.23;;;13.00;88.20;;;;;;5029188;28;20457;-73
2022/03/09 12:07:57;;;;;;;13.47;9.33;;;13.40;87.50;;;;;;5024185;28;20542;-72
2022/03/09 12:10:42;;;;;;;17.23;11.40;;;13.50;88.60;;;;;;5029938;28;20519;-70
2022/03/09 12:13:11;;;;;;;14.90;9.60;;;13.40;86.90;;;;;;5027678;28;20957;-69
2022/03/09 12:16:24;;;;;;;15.97;9.23;;;13.30;86.20;;;;;;5030597;28;21005;-69
2022/03/09 12:19:08;;;;;;;16.67;9.70;;;13.60;85.40;;;;;;5032012;28;20871;-69
2022/03/09 12:22:04;;;;;;;16.73;10.10;;;13.50;85.90;;;;;;5028088;28;20472;-70
2022/03/09 12:24:35;;;;;;;15.90;10.03;;;13.60;83.70;;;;;;5031021;28;20453;-70
2022/03/09 12:27:02;;;;;;;17.53;9.13;;;13.90;82.80;;;;;;5029785;28;20497;-70
2022/03/09 12:29:42;;;;;;;13.67;9.03;;;13.90;81.00;;;;;;5031553;28;20486;-70
2022/03/09 12:32:13;;;;;;;13.40;9.80;;;13.70;85.80;;;;;;5030689;28;20460;-69
2022/03/09 12:34:43;;;;;;;14.27;9.43;;;13.70;81.20;;;;;;5031056;28;20477;-68
2022/03/09 12:37:11;;;;;;;13.23;9.40;;;14.10;83.60;;;;;;5028119;28;20476;-72
2022/03/09 12:39:39;;;;;;;13.87;9.40;;;14.30;80.70;;;;;;5030712;28;20460;-69
2022/03/09 12:42:07;;;;;;;17.07;10.10;;;14.40;80.10;;;;;;5031267;28;20452;-70
2022/03/09 12:44:35;;;;;;;14.80;9.83;;;14.50;79.00;;;;;;5030888;28;20512;-69